sensor_id;sensor_type;location;lat;lon;timestamp;P1;durP1;ratioP1;P2;durP2;ratioP2
18752;SDS011;9505;50.882;5.350;2022-09-27T00:01:35;24.92;;;2.75;;
18752;SDS011;9505;50.882;5.350;2022-09-27T00:04:01;12.75;;;2.08;;
18752;SDS011;9505;50.882;5.350;2022-09-27T00:06:28;9.13;;;1.58;;
18752;SDS011;9505;50.882;5.350;2022-09-27T00:08:55;13.65;;;2.63;;
18752;SDS011;9505;50.882;5.350;2022-09-27T00:13:51;10.98;;;2.20;;
18752;SDS011;9505;50.882;5.350;2022-09-27T00:16:17;8.65;;;1.95;;
18752;SDS011;9505;50.882;5.350;2022-09-27T00:18:42;9.55;;;2.15;;
18752;SDS011;9505;50.882;5.350;2022-09-27T00:21:09;5.60;;;1.50;;
18752;SDS011;9505;50.882;5.350;2022-09-27T00:23:37;13.75;;;1.98;;
18752;SDS011;9505;50.882;5.350;2022-09-27T00:26:03;12.05;;;1.80;;
18752;SDS011;9505;50.882;5.350;2022-09-27T00:28:30;20.63;;;2.47;;
18752;SDS011;9505;50.882;5.350;2022-09-27T00:30:56;9.10;;;1.42;;
18752;SDS011;9505;50.882;5.350;2022-09-27T00:33:23;7.20;;;1.55;;
18752;SDS011;9505;50.882;5.350;2022-09-27T00:35:50;8.10;;;1.75;;
18752;SDS011;9505;50.882;5.350;2022-09-27T00:38:15;12.82;;;2.10;;
18752;SDS011;9505;50.882;5.350;2022-09-27T00:40:41;14.43;;;1.95;;
18752;SDS011;9505;50.882;5.350;2022-09-27T00:43:18;13.73;;;1.83;;
18752;SDS011;9505;50.882;5.350;2022-09-27T00:45:47;6.80;;;1.33;;
18752;SDS011;9505;50.882;5.350;2022-09-27T00:48:17;5.25;;;1.45;;
18752;SDS011;9505;50.882;5.350;2022-09-27T00:50:47;12.65;;;2.40;;
18752;SDS011;9505;50.882;5.350;2022-09-27T00:55:54;10.80;;;1.70;;
18752;SDS011;9505;50.882;5.350;2022-09-27T00:58:24;7.38;;;1.45;;
18752;SDS011;9505;50.882;5.350;2022-09-27T01:00:55;6.38;;;1.30;;
18752;SDS011;9505;50.882;5.350;2022-09-27T01:06:14;6.22;;;1.20;;
18752;SDS011;9505;50.882;5.350;2022-09-27T01:08:42;18.13;;;2.47;;
18752;SDS011;9505;50.882;5.350;2022-09-27T01:11:17;12.88;;;1.40;;
18752;SDS011;9505;50.882;5.350;2022-09-27T01:16:20;6.55;;;1.13;;
18752;SDS011;9505;50.882;5.350;2022-09-27T01:32:23;6.47;;;1.30;;
18752;SDS011;9505;50.882;5.350;2022-09-27T01:35:59;8.88;;;1.55;;
18752;SDS011;9505;50.882;5.350;2022-09-27T01:43:35;12.20;;;1.63;;
18752;SDS011;9505;50.882;5.350;2022-09-27T01:46:14;6.90;;;1.40;;
18752;SDS011;9505;50.882;5.350;2022-09-27T01:48:46;12.48;;;1.70;;
18752;SDS011;9505;50.882;5.350;2022-09-27T01:51:15;9.23;;;1.63;;
18752;SDS011;9505;50.882;5.350;2022-09-27T01:54:03;12.70;;;1.90;;
18752;SDS011;9505;50.882;5.350;2022-09-27T01:56:40;8.30;;;1.63;;
18752;SDS011;9505;50.882;5.350;2022-09-27T01:59:18;7.03;;;1.38;;
18752;SDS011;9505;50.882;5.350;2022-09-27T02:01:50;11.52;;;1.30;;
18752;SDS011;9505;50.882;5.350;2022-09-27T02:04:18;10.15;;;1.27;;
18752;SDS011;9505;50.882;5.350;2022-09-27T02:06:47;8.18;;;1.60;;
18752;SDS011;9505;50.882;5.350;2022-09-27T02:09:22;13.77;;;2.15;;
18752;SDS011;9505;50.882;5.350;2022-09-27T02:11:58;9.88;;;1.85;;
18752;SDS011;9505;50.882;5.350;2022-09-27T02:17:20;8.18;;;1.65;;
18752;SDS011;9505;50.882;5.350;2022-09-27T02:25:57;14.82;;;2.65;;
18752;SDS011;9505;50.882;5.350;2022-09-27T02:28:56;16.88;;;2.83;;
18752;SDS011;9505;50.882;5.350;2022-09-27T02:31:24;8.70;;;2.25;;
18752;SDS011;9505;50.882;5.350;2022-09-27T02:33:54;10.30;;;2.67;;
18752;SDS011;9505;50.882;5.350;2022-09-27T02:36:37;11.77;;;2.72;;
18752;SDS011;9505;50.882;5.350;2022-09-27T02:39:03;16.38;;;3.10;;
18752;SDS011;9505;50.882;5.350;2022-09-27T02:41:28;10.77;;;2.08;;
18752;SDS011;9505;50.882;5.350;2022-09-27T02:43:55;6.95;;;1.90;;
18752;SDS011;9505;50.882;5.350;2022-09-27T02:46:40;14.40;;;2.42;;
18752;SDS011;9505;50.882;5.350;2022-09-27T03:00:26;11.75;;;2.05;;
18752;SDS011;9505;50.882;5.350;2022-09-27T03:03:04;11.77;;;1.98;;
18752;SDS011;9505;50.882;5.350;2022-09-27T03:05:47;13.20;;;2.22;;
18752;SDS011;9505;50.882;5.350;2022-09-27T03:08:16;11.30;;;2.00;;
18752;SDS011;9505;50.882;5.350;2022-09-27T03:10:43;11.13;;;2.22;;
18752;SDS011;9505;50.882;5.350;2022-09-27T03:13:09;14.20;;;1.63;;
18752;SDS011;9505;50.882;5.350;2022-09-27T03:15:34;6.90;;;1.50;;
18752;SDS011;9505;50.882;5.350;2022-09-27T03:18:00;10.77;;;1.58;;
18752;SDS011;9505;50.882;5.350;2022-09-27T03:20:26;9.13;;;1.58;;
18752;SDS011;9505;50.882;5.350;2022-09-27T03:22:53;10.27;;;1.60;;
18752;SDS011;9505;50.882;5.350;2022-09-27T03:25:20;5.55;;;1.30;;
18752;SDS011;9505;50.882;5.350;2022-09-27T03:27:46;9.98;;;1.65;;
18752;SDS011;9505;50.882;5.350;2022-09-27T03:30:12;11.98;;;1.73;;
18752;SDS011;9505;50.882;5.350;2022-09-27T03:32:45;9.00;;;1.75;;
18752;SDS011;9505;50.882;5.350;2022-09-27T03:35:11;7.72;;;1.42;;
18752;SDS011;9505;50.882;5.350;2022-09-27T03:37:37;5.13;;;1.20;;
18752;SDS011;9505;50.882;5.350;2022-09-27T03:40:04;5.53;;;1.20;;
18752;SDS011;9505;50.882;5.350;2022-09-27T03:42:30;11.35;;;1.52;;
18752;SDS011;9505;50.882;5.350;2022-09-27T03:44:56;7.60;;;1.60;;
18752;SDS011;9505;50.882;5.350;2022-09-27T03:47:21;6.00;;;1.55;;
18752;SDS011;9505;50.882;5.350;2022-09-27T03:49:47;7.53;;;1.30;;
18752;SDS011;9505;50.882;5.350;2022-09-27T03:52:13;9.68;;;1.10;;
18752;SDS011;9505;50.882;5.350;2022-09-27T03:54:39;11.82;;;1.60;;
18752;SDS011;9505;50.882;5.350;2022-09-27T03:57:04;7.85;;;1.33;;
18752;SDS011;9505;50.882;5.350;2022-09-27T03:59:30;6.53;;;1.25;;
18752;SDS011;9505;50.882;5.350;2022-09-27T04:01:56;9.02;;;1.38;;
18752;SDS011;9505;50.882;5.350;2022-09-27T04:04:21;7.85;;;1.27;;
18752;SDS011;9505;50.882;5.350;2022-09-27T04:06:47;12.70;;;1.88;;
18752;SDS011;9505;50.882;5.350;2022-09-27T04:09:13;8.85;;;1.25;;
18752;SDS011;9505;50.882;5.350;2022-09-27T04:11:39;8.80;;;1.48;;
18752;SDS011;9505;50.882;5.350;2022-09-27T04:14:05;6.22;;;1.10;;
18752;SDS011;9505;50.882;5.350;2022-09-27T04:16:30;11.63;;;1.58;;
18752;SDS011;9505;50.882;5.350;2022-09-27T04:18:57;7.68;;;1.17;;
18752;SDS011;9505;50.882;5.350;2022-09-27T04:21:23;6.90;;;1.10;;
18752;SDS011;9505;50.882;5.350;2022-09-27T04:23:48;8.13;;;1.25;;
18752;SDS011;9505;50.882;5.350;2022-09-27T04:26:14;7.40;;;1.02;;
18752;SDS011;9505;50.882;5.350;2022-09-27T04:28:40;12.18;;;1.38;;
18752;SDS011;9505;50.882;5.350;2022-09-27T04:31:05;1.05;;;0.40;;
18752;SDS011;9505;50.882;5.350;2022-09-27T04:33:31;4.55;;;0.88;;
18752;SDS011;9505;50.882;5.350;2022-09-27T04:35:57;13.02;;;1.38;;
18752;SDS011;9505;50.882;5.350;2022-09-27T04:38:41;15.32;;;1.50;;
18752;SDS011;9505;50.882;5.350;2022-09-27T04:41:07;10.82;;;1.52;;
18752;SDS011;9505;50.882;5.350;2022-09-27T04:43:32;11.80;;;1.73;;
18752;SDS011;9505;50.882;5.350;2022-09-27T04:45:58;15.05;;;2.20;;
18752;SDS011;9505;50.882;5.350;2022-09-27T04:48:24;6.38;;;1.25;;
18752;SDS011;9505;50.882;5.350;2022-09-27T04:50:57;6.35;;;1.15;;
18752;SDS011;9505;50.882;5.350;2022-09-27T04:53:23;7.35;;;1.00;;
18752;SDS011;9505;50.882;5.350;2022-09-27T04:55:50;6.57;;;1.05;;
18752;SDS011;9505;50.882;5.350;2022-09-27T04:58:17;13.75;;;2.08;;
18752;SDS011;9505;50.882;5.350;2022-09-27T05:00:43;7.07;;;1.05;;
18752;SDS011;9505;50.882;5.350;2022-09-27T05:03:10;9.05;;;1.63;;
18752;SDS011;9505;50.882;5.350;2022-09-27T05:05:36;7.57;;;1.30;;
18752;SDS011;9505;50.882;5.350;2022-09-27T05:08:02;18.10;;;1.42;;
18752;SDS011;9505;50.882;5.350;2022-09-27T05:10:27;10.07;;;1.80;;
18752;SDS011;9505;50.882;5.350;2022-09-27T05:12:53;14.00;;;2.33;;
18752;SDS011;9505;50.882;5.350;2022-09-27T05:15:18;3.85;;;1.38;;
18752;SDS011;9505;50.882;5.350;2022-09-27T05:17:44;8.18;;;1.50;;
18752;SDS011;9505;50.882;5.350;2022-09-27T05:20:09;21.60;;;2.60;;
18752;SDS011;9505;50.882;5.350;2022-09-27T05:22:35;13.70;;;2.60;;
18752;SDS011;9505;50.882;5.350;2022-09-27T05:25:02;9.48;;;2.00;;
18752;SDS011;9505;50.882;5.350;2022-09-27T05:27:28;6.85;;;1.83;;
18752;SDS011;9505;50.882;5.350;2022-09-27T05:29:55;13.48;;;2.63;;
18752;SDS011;9505;50.882;5.350;2022-09-27T05:32:20;13.75;;;2.20;;
18752;SDS011;9505;50.882;5.350;2022-09-27T05:34:47;13.15;;;2.15;;
18752;SDS011;9505;50.882;5.350;2022-09-27T05:37:13;7.00;;;1.70;;
18752;SDS011;9505;50.882;5.350;2022-09-27T05:39:38;4.90;;;1.52;;
18752;SDS011;9505;50.882;5.350;2022-09-27T05:42:04;16.52;;;2.40;;
18752;SDS011;9505;50.882;5.350;2022-09-27T05:44:32;17.20;;;2.10;;
18752;SDS011;9505;50.882;5.350;2022-09-27T05:46:59;19.40;;;2.95;;
18752;SDS011;9505;50.882;5.350;2022-09-27T05:49:28;25.27;;;3.63;;
18752;SDS011;9505;50.882;5.350;2022-09-27T05:51:53;13.88;;;2.17;;
18752;SDS011;9505;50.882;5.350;2022-09-27T05:54:19;14.82;;;2.83;;
18752;SDS011;9505;50.882;5.350;2022-09-27T05:56:44;8.13;;;2.03;;
18752;SDS011;9505;50.882;5.350;2022-09-27T05:59:10;8.85;;;1.90;;
18752;SDS011;9505;50.882;5.350;2022-09-27T06:01:36;13.88;;;2.33;;
18752;SDS011;9505;50.882;5.350;2022-09-27T06:04:02;11.63;;;2.42;;
18752;SDS011;9505;50.882;5.350;2022-09-27T06:06:29;8.48;;;2.05;;
18752;SDS011;9505;50.882;5.350;2022-09-27T06:08:55;14.75;;;2.83;;
18752;SDS011;9505;50.882;5.350;2022-09-27T06:11:21;20.20;;;2.70;;
18752;SDS011;9505;50.882;5.350;2022-09-27T06:13:47;7.20;;;2.25;;
18752;SDS011;9505;50.882;5.350;2022-09-27T06:16:13;7.82;;;2.00;;
18752;SDS011;9505;50.882;5.350;2022-09-27T06:18:38;8.40;;;1.80;;
18752;SDS011;9505;50.882;5.350;2022-09-27T06:21:04;11.27;;;2.67;;
18752;SDS011;9505;50.882;5.350;2022-09-27T06:23:30;12.90;;;2.85;;
18752;SDS011;9505;50.882;5.350;2022-09-27T06:25:59;16.75;;;2.55;;
18752;SDS011;9505;50.882;5.350;2022-09-27T06:28:27;7.70;;;1.92;;
18752;SDS011;9505;50.882;5.350;2022-09-27T06:30:53;10.60;;;2.38;;
18752;SDS011;9505;50.882;5.350;2022-09-27T06:33:20;10.50;;;2.30;;
18752;SDS011;9505;50.882;5.350;2022-09-27T06:35:46;6.78;;;2.08;;
18752;SDS011;9505;50.882;5.350;2022-09-27T06:38:14;21.90;;;3.55;;
18752;SDS011;9505;50.882;5.350;2022-09-27T06:40:44;9.98;;;2.35;;
18752;SDS011;9505;50.882;5.350;2022-09-27T06:43:10;14.15;;;2.60;;
18752;SDS011;9505;50.882;5.350;2022-09-27T06:45:39;9.30;;;2.10;;
18752;SDS011;9505;50.882;5.350;2022-09-27T06:48:07;10.70;;;2.47;;
18752;SDS011;9505;50.882;5.350;2022-09-27T06:50:36;17.63;;;3.20;;
18752;SDS011;9505;50.882;5.350;2022-09-27T06:53:03;11.50;;;2.83;;
18752;SDS011;9505;50.882;5.350;2022-09-27T06:55:30;15.32;;;3.03;;
18752;SDS011;9505;50.882;5.350;2022-09-27T06:57:56;10.75;;;2.55;;
18752;SDS011;9505;50.882;5.350;2022-09-27T07:00:41;17.98;;;3.85;;
18752;SDS011;9505;50.882;5.350;2022-09-27T07:03:08;10.18;;;3.25;;
18752;SDS011;9505;50.882;5.350;2022-09-27T07:05:36;14.23;;;3.38;;
18752;SDS011;9505;50.882;5.350;2022-09-27T07:08:02;14.68;;;3.42;;
18752;SDS011;9505;50.882;5.350;2022-09-27T07:10:32;10.07;;;2.72;;
18752;SDS011;9505;50.882;5.350;2022-09-27T07:13:02;12.45;;;3.50;;
18752;SDS011;9505;50.882;5.350;2022-09-27T07:15:29;14.93;;;3.45;;
18752;SDS011;9505;50.882;5.350;2022-09-27T07:17:56;12.43;;;4.50;;
18752;SDS011;9505;50.882;5.350;2022-09-27T07:20:23;10.10;;;2.53;;
18752;SDS011;9505;50.882;5.350;2022-09-27T07:22:49;9.93;;;2.85;;
18752;SDS011;9505;50.882;5.350;2022-09-27T07:25:15;9.55;;;2.88;;
18752;SDS011;9505;50.882;5.350;2022-09-27T07:27:40;8.93;;;2.70;;
18752;SDS011;9505;50.882;5.350;2022-09-27T07:30:06;12.85;;;2.92;;
18752;SDS011;9505;50.882;5.350;2022-09-27T07:32:33;6.18;;;2.05;;
18752;SDS011;9505;50.882;5.350;2022-09-27T07:35:01;7.82;;;2.42;;
18752;SDS011;9505;50.882;5.350;2022-09-27T07:37:27;8.82;;;2.38;;
18752;SDS011;9505;50.882;5.350;2022-09-27T07:39:52;6.50;;;2.30;;
18752;SDS011;9505;50.882;5.350;2022-09-27T07:42:18;7.88;;;2.25;;
18752;SDS011;9505;50.882;5.350;2022-09-27T07:44:44;10.27;;;2.63;;
18752;SDS011;9505;50.882;5.350;2022-09-27T07:47:10;16.00;;;3.20;;
18752;SDS011;9505;50.882;5.350;2022-09-27T07:49:35;10.75;;;2.40;;
18752;SDS011;9505;50.882;5.350;2022-09-27T07:52:01;14.25;;;3.17;;
18752;SDS011;9505;50.882;5.350;2022-09-27T07:54:27;8.93;;;2.20;;
18752;SDS011;9505;50.882;5.350;2022-09-27T07:56:53;9.88;;;2.75;;
18752;SDS011;9505;50.882;5.350;2022-09-27T07:59:19;14.45;;;2.83;;
18752;SDS011;9505;50.882;5.350;2022-09-27T08:01:45;14.15;;;3.03;;
18752;SDS011;9505;50.882;5.350;2022-09-27T08:04:10;12.75;;;2.55;;
18752;SDS011;9505;50.882;5.350;2022-09-27T08:06:36;10.40;;;2.38;;
18752;SDS011;9505;50.882;5.350;2022-09-27T08:09:04;8.90;;;2.47;;
18752;SDS011;9505;50.882;5.350;2022-09-27T08:11:30;7.78;;;2.20;;
18752;SDS011;9505;50.882;5.350;2022-09-27T08:13:56;10.20;;;3.08;;
18752;SDS011;9505;50.882;5.350;2022-09-27T08:16:21;11.02;;;2.47;;
18752;SDS011;9505;50.882;5.350;2022-09-27T08:18:47;9.75;;;2.90;;
18752;SDS011;9505;50.882;5.350;2022-09-27T08:21:13;15.68;;;3.83;;
18752;SDS011;9505;50.882;5.350;2022-09-27T08:23:38;21.65;;;4.32;;
18752;SDS011;9505;50.882;5.350;2022-09-27T08:26:04;12.98;;;3.47;;
18752;SDS011;9505;50.882;5.350;2022-09-27T08:28:30;10.40;;;3.75;;
18752;SDS011;9505;50.882;5.350;2022-09-27T08:30:56;9.27;;;3.20;;
18752;SDS011;9505;50.882;5.350;2022-09-27T08:33:25;12.10;;;3.85;;
18752;SDS011;9505;50.882;5.350;2022-09-27T08:35:51;11.10;;;3.97;;
18752;SDS011;9505;50.882;5.350;2022-09-27T08:38:16;13.75;;;3.80;;
18752;SDS011;9505;50.882;5.350;2022-09-27T08:46:03;6.65;;;2.90;;
18752;SDS011;9505;50.882;5.350;2022-09-27T08:48:29;11.70;;;3.35;;
18752;SDS011;9505;50.882;5.350;2022-09-27T08:50:56;7.65;;;2.83;;
18752;SDS011;9505;50.882;5.350;2022-09-27T08:53:26;15.27;;;4.07;;
18752;SDS011;9505;50.882;5.350;2022-09-27T08:56:02;8.63;;;3.00;;
18752;SDS011;9505;50.882;5.350;2022-09-27T09:01:22;14.02;;;3.15;;
18752;SDS011;9505;50.882;5.350;2022-09-27T09:03:50;11.18;;;3.00;;
18752;SDS011;9505;50.882;5.350;2022-09-27T09:06:25;13.27;;;3.05;;
18752;SDS011;9505;50.882;5.350;2022-09-27T09:20:33;13.25;;;3.03;;
18752;SDS011;9505;50.882;5.350;2022-09-27T09:33:54;14.15;;;2.95;;
18752;SDS011;9505;50.882;5.350;2022-09-27T09:36:43;15.35;;;3.15;;
18752;SDS011;9505;50.882;5.350;2022-09-27T09:42:51;12.40;;;2.63;;
18752;SDS011;9505;50.882;5.350;2022-09-27T09:45:57;10.38;;;2.65;;
18752;SDS011;9505;50.882;5.350;2022-09-27T09:48:42;12.82;;;2.20;;
18752;SDS011;9505;50.882;5.350;2022-09-27T09:51:12;20.58;;;3.38;;
18752;SDS011;9505;50.882;5.350;2022-09-27T09:53:52;9.32;;;1.83;;
18752;SDS011;9505;50.882;5.350;2022-09-27T09:56:23;13.23;;;2.80;;
18752;SDS011;9505;50.882;5.350;2022-09-27T09:58:56;10.25;;;2.15;;
18752;SDS011;9505;50.882;5.350;2022-09-27T10:01:27;13.00;;;2.10;;
18752;SDS011;9505;50.882;5.350;2022-09-27T10:03:59;8.05;;;1.88;;
18752;SDS011;9505;50.882;5.350;2022-09-27T10:06:24;9.73;;;2.33;;
18752;SDS011;9505;50.882;5.350;2022-09-27T10:08:52;3.78;;;1.42;;
18752;SDS011;9505;50.882;5.350;2022-09-27T10:11:27;7.68;;;1.77;;
18752;SDS011;9505;50.882;5.350;2022-09-27T10:14:04;11.18;;;2.25;;
18752;SDS011;9505;50.882;5.350;2022-09-27T10:16:36;7.70;;;1.77;;
18752;SDS011;9505;50.882;5.350;2022-09-27T10:19:03;13.75;;;2.40;;
18752;SDS011;9505;50.882;5.350;2022-09-27T10:21:30;8.75;;;1.95;;
18752;SDS011;9505;50.882;5.350;2022-09-27T10:26:40;4.75;;;1.20;;
18752;SDS011;9505;50.882;5.350;2022-09-27T10:31:52;8.40;;;1.52;;
18752;SDS011;9505;50.882;5.350;2022-09-27T10:34:26;7.10;;;1.50;;
18752;SDS011;9505;50.882;5.350;2022-09-27T10:37:04;7.70;;;1.50;;
18752;SDS011;9505;50.882;5.350;2022-09-27T10:39:36;12.40;;;1.90;;
18752;SDS011;9505;50.882;5.350;2022-09-27T10:42:20;14.68;;;2.10;;
18752;SDS011;9505;50.882;5.350;2022-09-27T10:47:58;5.97;;;1.33;;
18752;SDS011;9505;50.882;5.350;2022-09-27T10:50:26;9.02;;;1.90;;
18752;SDS011;9505;50.882;5.350;2022-09-27T10:53:13;10.13;;;1.67;;
18752;SDS011;9505;50.882;5.350;2022-09-27T10:55:41;7.05;;;1.58;;
18752;SDS011;9505;50.882;5.350;2022-09-27T10:58:17;13.98;;;2.45;;
18752;SDS011;9505;50.882;5.350;2022-09-27T11:01:04;8.52;;;2.47;;
18752;SDS011;9505;50.882;5.350;2022-09-27T11:03:37;5.40;;;1.30;;
18752;SDS011;9505;50.882;5.350;2022-09-27T11:08:47;9.18;;;1.55;;
18752;SDS011;9505;50.882;5.350;2022-09-27T11:11:16;5.28;;;1.23;;
18752;SDS011;9505;50.882;5.350;2022-09-27T11:14:05;6.10;;;1.30;;
18752;SDS011;9505;50.882;5.350;2022-09-27T11:36:29;7.18;;;1.60;;
18752;SDS011;9505;50.882;5.350;2022-09-27T11:39:08;10.52;;;1.92;;
18752;SDS011;9505;50.882;5.350;2022-09-27T11:47:31;6.68;;;1.23;;
18752;SDS011;9505;50.882;5.350;2022-09-27T11:56:05;8.32;;;1.92;;
18752;SDS011;9505;50.882;5.350;2022-09-27T12:09:49;13.40;;;2.05;;
18752;SDS011;9505;50.882;5.350;2022-09-27T12:12:24;12.27;;;1.70;;
18752;SDS011;9505;50.882;5.350;2022-09-27T12:14:53;12.88;;;1.73;;
18752;SDS011;9505;50.882;5.350;2022-09-27T12:17:23;13.82;;;2.30;;
18752;SDS011;9505;50.882;5.350;2022-09-27T12:19:57;16.50;;;2.95;;
18752;SDS011;9505;50.882;5.350;2022-09-27T12:22:28;11.80;;;1.95;;
18752;SDS011;9505;50.882;5.350;2022-09-27T12:25:01;12.60;;;2.13;;
18752;SDS011;9505;50.882;5.350;2022-09-27T12:30:02;9.75;;;1.73;;
18752;SDS011;9505;50.882;5.350;2022-09-27T12:32:30;6.50;;;1.33;;
18752;SDS011;9505;50.882;5.350;2022-09-27T12:35:09;5.25;;;1.35;;
18752;SDS011;9505;50.882;5.350;2022-09-27T12:37:55;24.63;;;3.70;;
18752;SDS011;9505;50.882;5.350;2022-09-27T12:40:32;10.82;;;1.95;;
18752;SDS011;9505;50.882;5.350;2022-09-27T12:48:51;11.07;;;1.52;;
18752;SDS011;9505;50.882;5.350;2022-09-27T12:59:38;10.20;;;1.67;;
18752;SDS011;9505;50.882;5.350;2022-09-27T13:07:35;9.50;;;1.55;;
18752;SDS011;9505;50.882;5.350;2022-09-27T13:10:31;3.75;;;0.68;;
18752;SDS011;9505;50.882;5.350;2022-09-27T13:13:17;9.75;;;1.98;;
18752;SDS011;9505;50.882;5.350;2022-09-27T13:15:45;8.18;;;1.52;;
18752;SDS011;9505;50.882;5.350;2022-09-27T13:20:54;11.68;;;1.95;;
18752;SDS011;9505;50.882;5.350;2022-09-27T13:25:53;12.48;;;2.60;;
18752;SDS011;9505;50.882;5.350;2022-09-27T13:28:30;7.90;;;1.67;;
18752;SDS011;9505;50.882;5.350;2022-09-27T13:30:58;6.25;;;1.67;;
18752;SDS011;9505;50.882;5.350;2022-09-27T13:33:50;7.93;;;1.92;;
18752;SDS011;9505;50.882;5.350;2022-09-27T13:41:19;11.55;;;1.88;;
18752;SDS011;9505;50.882;5.350;2022-09-27T13:43:48;13.60;;;2.53;;
18752;SDS011;9505;50.882;5.350;2022-09-27T13:46:30;11.77;;;2.28;;
18752;SDS011;9505;50.882;5.350;2022-09-27T13:49:01;14.25;;;2.53;;
18752;SDS011;9505;50.882;5.350;2022-09-27T13:51:45;7.30;;;1.63;;
18752;SDS011;9505;50.882;5.350;2022-09-27T13:54:35;8.20;;;1.55;;
18752;SDS011;9505;50.882;5.350;2022-09-27T13:57:03;11.05;;;1.80;;
18752;SDS011;9505;50.882;5.350;2022-09-27T13:59:47;9.43;;;1.50;;
18752;SDS011;9505;50.882;5.350;2022-09-27T14:02:20;14.27;;;1.92;;
18752;SDS011;9505;50.882;5.350;2022-09-27T14:04:53;9.80;;;1.70;;
18752;SDS011;9505;50.882;5.350;2022-09-27T14:07:21;9.18;;;1.88;;
18752;SDS011;9505;50.882;5.350;2022-09-27T14:09:57;12.05;;;2.35;;
18752;SDS011;9505;50.882;5.350;2022-09-27T14:12:30;8.43;;;1.95;;
18752;SDS011;9505;50.882;5.350;2022-09-27T14:15:00;10.45;;;1.77;;
18752;SDS011;9505;50.882;5.350;2022-09-27T14:17:28;18.00;;;2.67;;
18752;SDS011;9505;50.882;5.350;2022-09-27T14:19:54;14.05;;;1.92;;
18752;SDS011;9505;50.882;5.350;2022-09-27T14:22:20;12.02;;;2.05;;
18752;SDS011;9505;50.882;5.350;2022-09-27T14:24:48;11.68;;;1.65;;
18752;SDS011;9505;50.882;5.350;2022-09-27T14:27:19;10.48;;;2.13;;
18752;SDS011;9505;50.882;5.350;2022-09-27T14:29:47;8.07;;;1.40;;
18752;SDS011;9505;50.882;5.350;2022-09-27T14:32:21;9.57;;;2.13;;
18752;SDS011;9505;50.882;5.350;2022-09-27T14:37:57;9.35;;;1.80;;
18752;SDS011;9505;50.882;5.350;2022-09-27T14:40:24;12.38;;;2.13;;
18752;SDS011;9505;50.882;5.350;2022-09-27T14:42:53;12.40;;;1.77;;
18752;SDS011;9505;50.882;5.350;2022-09-27T14:45:34;6.40;;;1.23;;
18752;SDS011;9505;50.882;5.350;2022-09-27T14:48:02;12.27;;;2.40;;
18752;SDS011;9505;50.882;5.350;2022-09-27T14:50:59;12.50;;;2.15;;
18752;SDS011;9505;50.882;5.350;2022-09-27T14:53:32;7.13;;;1.45;;
18752;SDS011;9505;50.882;5.350;2022-09-27T14:56:06;9.55;;;1.42;;
18752;SDS011;9505;50.882;5.350;2022-09-27T14:58:35;12.32;;;1.90;;
18752;SDS011;9505;50.882;5.350;2022-09-27T15:01:01;10.40;;;1.60;;
18752;SDS011;9505;50.882;5.350;2022-09-27T15:03:29;8.25;;;1.70;;
18752;SDS011;9505;50.882;5.350;2022-09-27T15:05:56;8.93;;;1.77;;
18752;SDS011;9505;50.882;5.350;2022-09-27T15:08:24;12.45;;;1.88;;
18752;SDS011;9505;50.882;5.350;2022-09-27T15:10:54;6.78;;;1.50;;
18752;SDS011;9505;50.882;5.350;2022-09-27T15:13:20;7.72;;;1.30;;
18752;SDS011;9505;50.882;5.350;2022-09-27T15:15:48;10.55;;;1.73;;
18752;SDS011;9505;50.882;5.350;2022-09-27T15:20:58;12.80;;;2.13;;
18752;SDS011;9505;50.882;5.350;2022-09-27T15:23:36;12.85;;;2.05;;
18752;SDS011;9505;50.882;5.350;2022-09-27T15:28:45;8.38;;;1.48;;
18752;SDS011;9505;50.882;5.350;2022-09-27T15:31:13;7.70;;;1.40;;
18752;SDS011;9505;50.882;5.350;2022-09-27T15:33:39;10.23;;;1.77;;
18752;SDS011;9505;50.882;5.350;2022-09-27T15:36:09;12.48;;;2.20;;
18752;SDS011;9505;50.882;5.350;2022-09-27T15:38:40;10.07;;;1.83;;
18752;SDS011;9505;50.882;5.350;2022-09-27T15:41:19;13.52;;;2.35;;
18752;SDS011;9505;50.882;5.350;2022-09-27T15:49:13;8.98;;;1.73;;
18752;SDS011;9505;50.882;5.350;2022-09-27T15:51:50;10.02;;;1.83;;
18752;SDS011;9505;50.882;5.350;2022-09-27T15:54:18;13.07;;;1.77;;
18752;SDS011;9505;50.882;5.350;2022-09-27T15:56:44;12.60;;;2.05;;
18752;SDS011;9505;50.882;5.350;2022-09-27T15:59:13;10.77;;;2.03;;
18752;SDS011;9505;50.882;5.350;2022-09-27T16:01:45;14.32;;;2.53;;
18752;SDS011;9505;50.882;5.350;2022-09-27T16:04:11;16.55;;;2.15;;
18752;SDS011;9505;50.882;5.350;2022-09-27T16:06:37;9.32;;;1.88;;
18752;SDS011;9505;50.882;5.350;2022-09-27T16:09:08;18.88;;;2.65;;
18752;SDS011;9505;50.882;5.350;2022-09-27T16:11:44;11.48;;;2.00;;
18752;SDS011;9505;50.882;5.350;2022-09-27T16:14:10;10.88;;;1.73;;
18752;SDS011;9505;50.882;5.350;2022-09-27T16:16:40;15.30;;;2.67;;
18752;SDS011;9505;50.882;5.350;2022-09-27T16:19:07;16.60;;;2.15;;
18752;SDS011;9505;50.882;5.350;2022-09-27T16:21:33;30.60;;;4.80;;
18752;SDS011;9505;50.882;5.350;2022-09-27T16:23:58;39.20;;;5.53;;
18752;SDS011;9505;50.882;5.350;2022-09-27T16:26:24;37.30;;;5.40;;
18752;SDS011;9505;50.882;5.350;2022-09-27T16:28:50;11.38;;;2.13;;
18752;SDS011;9505;50.882;5.350;2022-09-27T16:31:17;25.38;;;4.28;;
18752;SDS011;9505;50.882;5.350;2022-09-27T16:33:42;28.50;;;4.43;;
18752;SDS011;9505;50.882;5.350;2022-09-27T16:36:08;20.25;;;3.38;;
18752;SDS011;9505;50.882;5.350;2022-09-27T16:38:39;16.80;;;2.78;;
18752;SDS011;9505;50.882;5.350;2022-09-27T16:41:05;14.52;;;2.40;;
18752;SDS011;9505;50.882;5.350;2022-09-27T16:43:31;34.85;;;5.40;;
18752;SDS011;9505;50.882;5.350;2022-09-27T16:46:04;30.10;;;5.20;;
18752;SDS011;9505;50.882;5.350;2022-09-27T16:48:33;41.30;;;6.43;;
18752;SDS011;9505;50.882;5.350;2022-09-27T16:51:17;13.38;;;3.00;;
18752;SDS011;9505;50.882;5.350;2022-09-27T16:54:04;13.65;;;2.92;;
18752;SDS011;9505;50.882;5.350;2022-09-27T16:56:31;22.60;;;3.80;;
18752;SDS011;9505;50.882;5.350;2022-09-27T16:58:59;40.60;;;6.35;;
18752;SDS011;9505;50.882;5.350;2022-09-27T17:01:27;35.67;;;5.47;;
18752;SDS011;9505;50.882;5.350;2022-09-27T17:03:53;9.95;;;2.78;;
18752;SDS011;9505;50.882;5.350;2022-09-27T17:06:21;13.50;;;2.78;;
18752;SDS011;9505;50.882;5.350;2022-09-27T17:08:47;42.22;;;6.40;;
18752;SDS011;9505;50.882;5.350;2022-09-27T17:11:14;41.35;;;6.10;;
18752;SDS011;9505;50.882;5.350;2022-09-27T17:13:41;29.75;;;4.93;;
18752;SDS011;9505;50.882;5.350;2022-09-27T17:16:08;17.05;;;3.28;;
18752;SDS011;9505;50.882;5.350;2022-09-27T17:18:35;35.47;;;5.60;;
18752;SDS011;9505;50.882;5.350;2022-09-27T17:21:01;36.55;;;6.35;;
18752;SDS011;9505;50.882;5.350;2022-09-27T17:23:29;30.95;;;5.72;;
18752;SDS011;9505;50.882;5.350;2022-09-27T17:26:13;15.43;;;3.85;;
18752;SDS011;9505;50.882;5.350;2022-09-27T17:28:51;45.90;;;6.63;;
18752;SDS011;9505;50.882;5.350;2022-09-27T17:31:21;49.25;;;7.25;;
18752;SDS011;9505;50.882;5.350;2022-09-27T17:33:47;48.58;;;7.72;;
18752;SDS011;9505;50.882;5.350;2022-09-27T17:36:19;18.85;;;4.75;;
18752;SDS011;9505;50.882;5.350;2022-09-27T17:38:46;23.65;;;4.85;;
18752;SDS011;9505;50.882;5.350;2022-09-27T17:41:14;14.85;;;3.92;;
18752;SDS011;9505;50.882;5.350;2022-09-27T17:43:42;49.25;;;8.52;;
18752;SDS011;9505;50.882;5.350;2022-09-27T17:46:15;45.45;;;7.20;;
18752;SDS011;9505;50.882;5.350;2022-09-27T17:48:42;35.15;;;6.40;;
18752;SDS011;9505;50.882;5.350;2022-09-27T17:51:26;40.88;;;6.82;;
18752;SDS011;9505;50.882;5.350;2022-09-27T17:53:53;46.22;;;7.82;;
18752;SDS011;9505;50.882;5.350;2022-09-27T17:56:19;19.15;;;4.30;;
18752;SDS011;9505;50.882;5.350;2022-09-27T17:58:47;12.57;;;3.53;;
18752;SDS011;9505;50.882;5.350;2022-09-27T18:01:14;39.17;;;6.25;;
18752;SDS011;9505;50.882;5.350;2022-09-27T18:03:40;49.65;;;7.90;;
18752;SDS011;9505;50.882;5.350;2022-09-27T18:06:06;24.13;;;5.45;;
18752;SDS011;9505;50.882;5.350;2022-09-27T18:08:33;21.20;;;3.88;;
18752;SDS011;9505;50.882;5.350;2022-09-27T18:11:03;47.38;;;7.32;;
18752;SDS011;9505;50.882;5.350;2022-09-27T18:13:33;41.17;;;6.97;;